createdAt,value
2023-11-26T00:00:39.917Z,8.52
2023-11-26T00:03:08.493Z,8.43
2023-11-26T00:05:37.328Z,7.95
2023-11-26T00:08:06.664Z,6.22
2023-11-26T00:10:35.447Z,10.07
2023-11-26T00:13:04.266Z,5.65
2023-11-26T00:15:36.013Z,9.73
2023-11-26T00:18:06.033Z,8.85
2023-11-26T00:20:34.689Z,10.13
2023-11-26T00:23:11.728Z,12.48
2023-11-26T00:25:43.117Z,11.52
2023-11-26T00:28:14.531Z,12.75
2023-11-26T00:30:48.430Z,7.75
2023-11-26T00:33:28.703Z,10.70
2023-11-26T00:36:02.630Z,11.18
2023-11-26T00:41:03.387Z,9.27
2023-11-26T00:43:38.219Z,10.63
2023-11-26T00:46:15.973Z,10.07
2023-11-26T00:48:48.002Z,9.63
2023-11-26T00:51:27.199Z,14.60
2023-11-26T00:53:55.475Z,6.90
2023-11-26T00:56:25.479Z,13.30
2023-11-26T00:59:05.214Z,11.85
2023-11-26T01:01:35.411Z,13.88
2023-11-26T01:04:10.279Z,14.98
2023-11-26T01:06:43.424Z,7.57
2023-11-26T01:09:19.787Z,14.50
2023-11-26T01:11:50.796Z,12.88
2023-11-26T01:14:28.857Z,11.52
2023-11-26T01:17:01.238Z,9.45
2023-11-26T01:19:33.339Z,9.48
2023-11-26T01:22:10.662Z,7.40
2023-11-26T01:24:39.334Z,8.85
2023-11-26T01:27:12.576Z,8.88
2023-11-26T01:29:43.476Z,10.82
2023-11-26T01:32:15.518Z,9.40
2023-11-26T01:34:52.599Z,10.50
2023-11-26T01:37:24.263Z,10.40
2023-11-26T01:39:53.051Z,6.15
2023-11-26T01:42:23.004Z,15.63
2023-11-26T01:44:54.026Z,9.05
2023-11-26T01:47:25.977Z,13.70
2023-11-26T01:50:02.711Z,11.82
2023-11-26T01:52:31.183Z,8.85
2023-11-26T01:55:00.021Z,13.40
2023-11-26T01:57:32.742Z,13.50
2023-11-26T02:00:02.691Z,10.63
2023-11-26T02:02:44.073Z,8.15
2023-11-26T02:05:18.697Z,12.07
2023-11-26T02:07:48.510Z,7.68
2023-11-26T02:10:37.755Z,10.70
2023-11-26T02:13:08.458Z,13.90
2023-11-26T02:15:38.816Z,11.45
2023-11-26T02:18:12.312Z,13.35
2023-11-26T02:20:49.609Z,10.85
2023-11-26T02:23:19.916Z,14.52
2023-11-26T02:25:52.559Z,12.23
2023-11-26T02:28:22.794Z,13.95
2023-11-26T02:30:54.654Z,11.10
2023-11-26T02:33:27.689Z,12.82
2023-11-26T02:36:27.890Z,11.98
2023-11-26T02:39:02.272Z,11.93
2023-11-26T02:41:34.180Z,13.30
2023-11-26T02:44:07.394Z,14.70
2023-11-26T02:46:40.435Z,16.38
2023-11-26T02:49:14.853Z,11.30
2023-11-26T02:51:49.231Z,15.20
2023-11-26T02:54:17.825Z,17.25
2023-11-26T02:56:51.967Z,12.93
2023-11-26T02:59:20.804Z,27.37
2023-11-26T03:01:52.789Z,15.65
2023-11-26T03:04:24.929Z,16.00
2023-11-26T03:06:54.644Z,10.70
2023-11-26T03:10:03.600Z,15.40
2023-11-26T03:12:51.493Z,9.23
2023-11-26T03:15:31.062Z,15.02
2023-11-26T03:18:00.631Z,12.70
2023-11-26T03:20:32.249Z,19.73
2023-11-26T03:23:02.826Z,15.05
2023-11-26T03:25:31.437Z,15.57
2023-11-26T03:28:00.767Z,16.35
2023-11-26T03:30:29.279Z,11.75
2023-11-26T03:32:58.782Z,14.13
2023-11-26T03:35:28.149Z,12.88
2023-11-26T03:37:56.671Z,21.10
2023-11-26T03:40:26.247Z,18.48
2023-11-26T03:42:57.155Z,15.10
2023-11-26T03:45:43.227Z,16.50
2023-11-26T03:48:22.887Z,9.50
2023-11-26T03:50:54.394Z,14.25
2023-11-26T03:53:28.124Z,12.63
2023-11-26T03:56:00.261Z,16.65
2023-11-26T03:58:28.537Z,13.93
2023-11-26T04:01:04.322Z,17.15
2023-11-26T04:03:39.720Z,17.20
2023-11-26T04:06:08.719Z,25.27
2023-11-26T04:08:42.474Z,13.93
2023-11-26T04:11:16.945Z,24.00
2023-11-26T04:13:48.657Z,17.90
2023-11-26T04:16:23.639Z,11.80
2023-11-26T04:21:23.357Z,12.77
2023-11-26T04:23:55.125Z,20.30
2023-11-26T04:26:44.575Z,20.58
2023-11-26T04:29:17.668Z,17.15
2023-11-26T04:31:50.625Z,14.93
2023-11-26T04:34:22.286Z,15.32
2023-11-26T04:36:52.131Z,14.23
2023-11-26T04:39:30.179Z,14.85
2023-11-26T04:41:59.849Z,15.25
2023-11-26T04:44:28.322Z,19.17
2023-11-26T04:47:00.723Z,24.63
2023-11-26T04:49:31.708Z,16.02
2023-11-26T04:52:01.809Z,12.48
2023-11-26T04:54:30.757Z,12.55
2023-11-26T04:56:59.167Z,18.42
2023-11-26T04:59:29.009Z,17.85
2023-11-26T05:02:02.474Z,14.18
2023-11-26T05:04:34.015Z,18.30
2023-11-26T05:07:03.641Z,11.95
2023-11-26T05:09:32.593Z,18.58
2023-11-26T05:12:02.899Z,14.85
2023-11-26T05:14:31.233Z,14.38
2023-11-26T05:17:02.103Z,14.85
2023-11-26T05:19:33.953Z,18.85
2023-11-26T05:22:02.591Z,13.25
2023-11-26T05:24:31.062Z,13.77
2023-11-26T05:27:05.213Z,11.90
2023-11-26T05:29:38.636Z,15.05
2023-11-26T05:32:08.972Z,13.07
2023-11-26T05:34:51.678Z,16.75
2023-11-26T05:37:20.048Z,11.75
2023-11-26T05:39:50.681Z,15.50
2023-11-26T05:42:19.146Z,12.55
2023-11-26T05:44:48.780Z,10.88
2023-11-26T05:47:18.557Z,14.40
2023-11-26T05:49:46.812Z,13.80
2023-11-26T05:52:16.718Z,23.17
2023-11-26T05:54:49.129Z,20.45
2023-11-26T05:57:17.683Z,22.70
2023-11-26T05:59:46.253Z,23.83
2023-11-26T06:02:15.094Z,23.13
2023-11-26T06:04:52.790Z,19.42
2023-11-26T06:07:24.021Z,22.17
2023-11-26T06:09:52.621Z,26.45
2023-11-26T06:12:22.911Z,30.55
2023-11-26T06:14:51.871Z,22.02
2023-11-26T06:17:30.137Z,22.38
2023-11-26T06:19:59.752Z,19.02
2023-11-26T06:22:28.156Z,18.65
2023-11-26T06:24:56.651Z,21.60
2023-11-26T06:27:26.000Z,21.35
2023-11-26T06:29:54.487Z,24.10
2023-11-26T06:32:27.115Z,24.40
2023-11-26T06:35:03.897Z,17.27
2023-11-26T06:37:32.900Z,23.05
2023-11-26T06:40:01.743Z,24.83
2023-11-26T06:42:40.653Z,20.40
2023-11-26T06:45:10.540Z,23.98
2023-11-26T06:47:40.458Z,18.10
2023-11-26T06:50:22.384Z,17.40
2023-11-26T06:52:51.071Z,20.77
2023-11-26T06:55:19.836Z,20.92
2023-11-26T06:57:51.298Z,21.30
2023-11-26T07:00:31.221Z,22.05
2023-11-26T07:03:02.091Z,24.17
2023-11-26T07:05:32.068Z,23.95
2023-11-26T07:08:03.878Z,19.77
2023-11-26T07:10:41.172Z,25.55
2023-11-26T07:13:12.695Z,19.70
2023-11-26T07:15:41.895Z,22.05
2023-11-26T07:18:10.403Z,24.48
2023-11-26T07:20:44.277Z,20.40
2023-11-26T07:23:23.122Z,18.00
2023-11-26T07:25:55.051Z,16.30
2023-11-26T07:28:24.630Z,26.77
2023-11-26T07:31:03.837Z,26.83
2023-11-26T07:33:33.646Z,22.20
2023-11-26T07:36:03.604Z,16.85
2023-11-26T07:38:31.825Z,30.85
2023-11-26T07:41:00.563Z,18.80
2023-11-26T07:43:29.101Z,23.67
2023-11-26T07:45:59.202Z,22.60
2023-11-26T07:48:37.305Z,28.92
2023-11-26T07:51:07.679Z,25.25
2023-11-26T07:53:39.182Z,28.30
2023-11-26T07:56:09.256Z,21.10
2023-11-26T07:58:43.002Z,26.13
2023-11-26T08:01:14.379Z,24.02
2023-11-26T08:03:42.954Z,19.05
2023-11-26T08:06:19.448Z,14.73
2023-11-26T08:08:47.925Z,17.27
2023-11-26T08:11:17.343Z,19.73
2023-11-26T08:13:47.305Z,20.42
2023-11-26T08:16:19.506Z,22.50
2023-11-26T08:19:00.059Z,20.30
2023-11-26T08:21:37.043Z,21.65
2023-11-26T08:24:14.796Z,20.63
2023-11-26T08:26:45.100Z,22.55
2023-11-26T08:29:14.563Z,16.70
2023-11-26T08:31:44.071Z,17.30
2023-11-26T08:34:17.456Z,21.17
2023-11-26T08:37:06.325Z,23.35
2023-11-26T08:39:43.206Z,14.95
2023-11-26T08:42:20.153Z,17.15
2023-11-26T08:44:58.721Z,15.45
2023-11-26T08:47:32.328Z,21.27
2023-11-26T08:50:04.124Z,13.93
2023-11-26T08:52:42.382Z,15.43
2023-11-26T08:55:22.973Z,18.60
2023-11-26T08:58:01.234Z,20.42
2023-11-26T09:00:33.735Z,19.83
2023-11-26T09:03:22.534Z,19.48
2023-11-26T09:05:59.779Z,18.60
2023-11-26T09:08:38.846Z,28.15
2023-11-26T09:11:10.276Z,25.17
2023-11-26T09:13:38.908Z,14.45
2023-11-26T09:16:09.942Z,27.85
2023-11-26T09:18:38.791Z,21.42
2023-11-26T09:21:07.456Z,13.07
2023-11-26T09:23:44.053Z,18.10
2023-11-26T09:26:12.579Z,14.85
2023-11-26T09:28:41.267Z,16.90
2023-11-26T09:31:14.024Z,14.75
2023-11-26T09:33:55.329Z,13.93
2023-11-26T09:36:23.758Z,13.70
2023-11-26T09:38:53.537Z,17.70
2023-11-26T09:41:22.500Z,17.30
2023-11-26T09:43:54.167Z,16.27
2023-11-26T09:46:33.369Z,14.27
2023-11-26T09:49:05.773Z,13.45
2023-11-26T09:51:38.656Z,19.52
2023-11-26T09:54:12.663Z,12.23
2023-11-26T09:56:42.536Z,13.85
2023-11-26T09:59:27.371Z,19.02
2023-11-26T10:02:18.846Z,12.25
2023-11-26T10:04:57.382Z,11.93
2023-11-26T10:07:45.619Z,19.63
2023-11-26T10:10:22.706Z,13.07
2023-11-26T10:12:56.216Z,15.30
2023-11-26T10:15:27.641Z,13.55
2023-11-26T10:18:10.507Z,14.00
2023-11-26T10:20:50.625Z,15.63
2023-11-26T10:23:37.530Z,16.27
2023-11-26T10:26:21.484Z,20.77
2023-11-26T10:29:09.459Z,15.13
2023-11-26T10:32:03.371Z,20.50
2023-11-26T10:34:47.419Z,16.55
2023-11-26T10:37:36.897Z,18.23
2023-11-26T10:40:19.599Z,27.38
2023-11-26T10:42:54.911Z,15.80
2023-11-26T10:45:29.569Z,13.32
2023-11-26T10:48:03.701Z,23.10
2023-11-26T10:51:13.626Z,15.23
2023-11-26T10:53:59.337Z,20.20
2023-11-26T10:56:56.010Z,11.77
2023-11-26T10:59:39.631Z,16.63
2023-11-26T11:02:20.065Z,18.90
2023-11-26T11:05:00.610Z,12.35
2023-11-26T11:07:37.000Z,15.25
2023-11-26T11:10:24.976Z,18.92
2023-11-26T11:13:17.477Z,11.07
2023-11-26T11:15:55.390Z,9.77
2023-11-26T11:18:57.708Z,8.35
2023-11-26T11:21:28.093Z,9.80
2023-11-26T11:23:58.900Z,8.05
2023-11-26T11:26:37.407Z,8.43
2023-11-26T11:29:12.760Z,9.68
2023-11-26T11:34:40.577Z,9.20
2023-11-26T11:37:16.566Z,8.13
2023-11-26T11:39:48.236Z,9.73
2023-11-26T11:42:22.741Z,8.88
2023-11-26T11:44:56.561Z,7.25
2023-11-26T11:47:47.559Z,12.65
2023-11-26T11:50:21.879Z,8.90
2023-11-26T11:52:58.376Z,11.68
2023-11-26T11:55:42.813Z,6.18
2023-11-26T11:58:16.592Z,6.97
2023-11-26T12:00:47.716Z,11.80
2023-11-26T12:03:24.227Z,11.55
2023-11-26T12:06:13.951Z,5.75
2023-11-26T12:08:43.938Z,10.93
2023-11-26T12:11:19.879Z,7.07
2023-11-26T12:13:50.462Z,6.82
2023-11-26T12:16:27.174Z,8.82
2023-11-26T12:18:56.425Z,10.77
2023-11-26T12:21:27.122Z,8.05
2023-11-26T12:24:00.574Z,8.90
2023-11-26T12:26:38.291Z,9.45
2023-11-26T12:29:07.528Z,10.13
2023-11-26T12:31:36.062Z,8.10
2023-11-26T12:34:04.833Z,7.25
2023-11-26T12:36:35.119Z,11.38
2023-11-26T12:39:05.920Z,8.20
2023-11-26T12:41:34.939Z,9.43
2023-11-26T12:44:03.958Z,10.18
2023-11-26T12:46:32.615Z,9.43
2023-11-26T12:49:02.692Z,9.05
2023-11-26T12:51:32.070Z,9.85
2023-11-26T12:54:02.273Z,11.68
2023-11-26T12:56:30.716Z,10.52
2023-11-26T12:59:01.107Z,16.17
2023-11-26T13:01:32.005Z,7.25
2023-11-26T13:04:00.704Z,13.85
2023-11-26T13:06:31.133Z,11.25
2023-11-26T13:09:07.911Z,11.50
2023-11-26T13:11:39.767Z,13.30
2023-11-26T13:14:11.630Z,8.70
2023-11-26T13:16:45.028Z,13.05
2023-11-26T13:19:18.816Z,14.27
2023-11-26T13:21:48.697Z,11.18
2023-11-26T13:24:28.169Z,10.43
2023-11-26T13:27:03.214Z,15.38
2023-11-26T13:32:04.673Z,11.82
2023-11-26T13:34:36.809Z,10.25
2023-11-26T13:37:10.872Z,6.07
2023-11-26T13:39:45.378Z,11.93
2023-11-26T13:42:21.746Z,16.40
2023-11-26T13:44:54.462Z,16.08
2023-11-26T13:47:33.841Z,14.25
2023-11-26T13:50:06.489Z,17.88
2023-11-26T13:52:48.840Z,15.63
2023-11-26T13:55:27.049Z,17.73
2023-11-26T13:58:02.740Z,16.00
2023-11-26T14:00:35.728Z,17.42
2023-11-26T14:03:20.328Z,14.57
2023-11-26T14:05:56.443Z,16.73
2023-11-26T14:08:35.608Z,14.88
2023-11-26T14:11:10.278Z,15.90
2023-11-26T14:13:41.313Z,11.02
2023-11-26T14:16:22.708Z,14.55
2023-11-26T14:18:54.257Z,17.02
2023-11-26T14:21:31.150Z,14.30
2023-11-26T14:24:08.499Z,13.73
2023-11-26T14:26:42.371Z,11.23
2023-11-26T14:29:12.589Z,20.52
2023-11-26T14:31:48.556Z,10.50
2023-11-26T14:34:18.173Z,11.60
2023-11-26T14:36:49.198Z,8.15
2023-11-26T14:39:22.171Z,11.18
2023-11-26T14:42:00.525Z,15.88
2023-11-26T14:44:33.276Z,13.02
2023-11-26T14:47:08.752Z,13.93
2023-11-26T14:49:39.549Z,14.90
2023-11-26T14:52:12.156Z,9.63
2023-11-26T14:54:46.317Z,13.65
2023-11-26T14:57:20.578Z,23.15
2023-11-26T14:59:51.626Z,20.70
2023-11-26T15:02:20.367Z,15.73
2023-11-26T15:04:52.261Z,14.98
2023-11-26T15:07:22.003Z,14.77
2023-11-26T15:09:52.718Z,16.98
2023-11-26T15:12:26.159Z,11.63
2023-11-26T15:14:58.130Z,19.55
2023-11-26T15:17:32.277Z,14.00
2023-11-26T15:20:08.075Z,12.37
2023-11-26T15:22:37.805Z,14.57
2023-11-26T15:25:07.888Z,18.13
2023-11-26T15:27:40.486Z,14.40
2023-11-26T15:30:16.602Z,10.15
2023-11-26T15:32:46.129Z,11.95
2023-11-26T15:35:17.665Z,9.82
2023-11-26T15:37:55.883Z,12.95
2023-11-26T15:40:32.724Z,8.35
2023-11-26T15:43:06.168Z,8.00
2023-11-26T15:45:39.428Z,13.70
2023-11-26T15:48:10.987Z,10.23
2023-11-26T15:50:41.538Z,9.73
2023-11-26T15:53:09.770Z,12.13
2023-11-26T15:55:41.343Z,9.75
2023-11-26T15:58:16.133Z,13.20
2023-11-26T16:00:47.430Z,11.02
2023-11-26T16:03:17.885Z,10.93
2023-11-26T16:05:46.277Z,9.50
2023-11-26T16:08:14.564Z,12.88
2023-11-26T16:10:45.330Z,10.07
2023-11-26T16:13:16.220Z,12.25
2023-11-26T16:15:49.344Z,13.18
2023-11-26T16:18:19.274Z,11.77
2023-11-26T16:20:53.046Z,8.77
2023-11-26T16:23:21.526Z,9.52
2023-11-26T16:25:51.661Z,10.05
2023-11-26T16:28:21.648Z,10.65
2023-11-26T16:30:50.111Z,9.80
2023-11-26T16:33:38.836Z,16.25
2023-11-26T16:36:08.536Z,11.48
2023-11-26T16:38:37.819Z,11.30
2023-11-26T16:41:06.535Z,14.38
2023-11-26T16:43:39.167Z,10.13
2023-11-26T16:46:10.151Z,15.52
2023-11-26T16:48:38.797Z,13.98
2023-11-26T16:51:10.052Z,18.88
2023-11-26T16:53:41.280Z,20.67
2023-11-26T16:56:11.720Z,13.35
2023-11-26T16:58:47.775Z,15.48
2023-11-26T17:01:16.410Z,15.52
2023-11-26T17:03:45.013Z,18.05
2023-11-26T17:06:15.368Z,15.93
2023-11-26T17:08:45.786Z,19.58
2023-11-26T17:11:16.289Z,34.60
2023-11-26T17:13:46.470Z,14.15
2023-11-26T17:16:16.564Z,17.60
2023-11-26T17:18:47.123Z,17.00
2023-11-26T17:21:18.630Z,23.73
2023-11-26T17:23:51.414Z,18.38
2023-11-26T17:26:23.628Z,16.70
2023-11-26T17:28:53.914Z,17.27
2023-11-26T17:31:26.044Z,15.85
2023-11-26T17:33:55.206Z,17.48
2023-11-26T17:36:25.687Z,13.15
2023-11-26T17:38:55.219Z,16.33
2023-11-26T17:41:25.070Z,18.15
2023-11-26T17:43:57.792Z,18.08
2023-11-26T17:46:28.747Z,16.75
2023-11-26T17:48:59.122Z,15.43
2023-11-26T17:51:28.102Z,12.77
2023-11-26T17:53:57.139Z,13.18
2023-11-26T17:56:25.921Z,16.52
2023-11-26T17:58:54.866Z,16.30
2023-11-26T18:01:25.296Z,16.25
2023-11-26T18:03:56.143Z,18.83
2023-11-26T18:06:25.036Z,14.60
2023-11-26T18:08:55.577Z,18.92
2023-11-26T18:11:24.597Z,12.52
2023-11-26T18:13:56.381Z,10.80
2023-11-26T18:16:29.553Z,9.60
2023-11-26T18:19:00.492Z,11.13
2023-11-26T18:21:29.536Z,11.63
2023-11-26T18:24:01.553Z,11.32
2023-11-26T18:26:33.091Z,13.93
2023-11-26T18:29:04.423Z,10.57
2023-11-26T18:31:36.263Z,13.27
2023-11-26T18:34:05.204Z,13.85
2023-11-26T18:36:33.719Z,13.82
2023-11-26T18:39:02.359Z,12.95
2023-11-26T18:41:31.297Z,8.68
2023-11-26T18:43:59.905Z,11.07
2023-11-26T18:46:42.993Z,12.88
2023-11-26T18:49:12.429Z,9.07
2023-11-26T18:51:46.959Z,11.40
2023-11-26T18:54:16.506Z,10.32
2023-11-26T18:56:45.939Z,9.93
2023-11-26T18:59:19.021Z,13.52
2023-11-26T19:02:04.199Z,13.70
2023-11-26T19:04:33.115Z,11.32
2023-11-26T19:07:05.263Z,12.25
2023-11-26T19:09:39.625Z,7.20
2023-11-26T19:12:08.064Z,12.85
2023-11-26T19:14:36.776Z,9.73
2023-11-26T19:17:06.478Z,11.68
2023-11-26T19:19:35.394Z,10.75
2023-11-26T19:22:04.538Z,12.00
2023-11-26T19:24:32.834Z,11.95
2023-11-26T19:27:00.982Z,8.55
2023-11-26T19:29:29.264Z,13.38
2023-11-26T19:31:57.224Z,12.93
2023-11-26T19:34:34.821Z,11.98
2023-11-26T19:37:03.861Z,15.90
2023-11-26T19:39:32.527Z,15.60
2023-11-26T19:42:00.602Z,9.68
2023-11-26T19:44:31.936Z,13.13
2023-11-26T19:47:00.642Z,13.65
2023-11-26T19:49:29.951Z,13.05
2023-11-26T19:51:58.612Z,13.25
2023-11-26T19:54:26.727Z,23.17
2023-11-26T19:56:56.201Z,12.98
2023-11-26T19:59:24.299Z,13.45
2023-11-26T20:01:53.390Z,15.70
2023-11-26T20:04:22.215Z,17.10
2023-11-26T20:07:04.625Z,21.50
2023-11-26T20:09:33.094Z,11.80
2023-11-26T20:12:01.475Z,13.70
2023-11-26T20:14:29.881Z,16.15
2023-11-26T20:16:58.581Z,14.88
2023-11-26T20:19:26.850Z,12.02
2023-11-26T20:21:56.271Z,16.85
2023-11-26T20:24:27.929Z,17.40
2023-11-26T20:27:03.423Z,15.95
2023-11-26T20:29:31.562Z,20.42
2023-11-26T20:32:16.957Z,21.83
2023-11-26T20:34:47.355Z,26.65
2023-11-26T20:37:17.179Z,27.98
2023-11-26T20:39:45.619Z,19.00
2023-11-26T20:42:21.841Z,24.80
2023-11-26T20:44:50.339Z,17.77
2023-11-26T20:47:18.496Z,19.08
2023-11-26T20:49:49.049Z,20.80
2023-11-26T20:52:19.216Z,19.83
2023-11-26T20:54:55.841Z,19.30
2023-11-26T20:57:43.233Z,20.63
2023-11-26T21:00:13.827Z,22.75
2023-11-26T21:02:50.801Z,14.25
2023-11-26T21:05:21.242Z,20.00
2023-11-26T21:07:52.658Z,11.70
2023-11-26T21:10:20.992Z,13.63
2023-11-26T21:12:49.518Z,17.77
2023-11-26T21:15:18.009Z,15.60
2023-11-26T21:17:52.268Z,22.52
2023-11-26T21:20:21.468Z,21.13
2023-11-26T21:22:51.524Z,17.00
2023-11-26T21:25:19.706Z,17.67
2023-11-26T21:27:56.702Z,11.88
2023-11-26T21:30:28.265Z,10.30
2023-11-26T21:32:56.910Z,13.27
2023-11-26T21:35:28.980Z,16.50
2023-11-26T21:37:59.793Z,19.05
2023-11-26T21:40:29.194Z,18.90
2023-11-26T21:42:57.229Z,15.80
2023-11-26T21:45:27.893Z,13.98
2023-11-26T21:48:11.568Z,16.20
2023-11-26T21:50:41.181Z,12.15
2023-11-26T21:53:11.960Z,12.50
2023-11-26T21:55:40.083Z,14.68
2023-11-26T21:58:08.443Z,16.67
2023-11-26T22:00:38.789Z,21.20
2023-11-26T22:03:12.519Z,19.77
2023-11-26T22:05:40.730Z,18.98
2023-11-26T22:08:20.973Z,21.10
2023-11-26T22:10:54.106Z,15.55
2023-11-26T22:13:22.973Z,14.50
2023-11-26T22:16:01.067Z,15.63
2023-11-26T22:18:42.648Z,13.00
2023-11-26T22:21:21.548Z,13.55
2023-11-26T22:23:56.747Z,15.98
2023-11-26T22:26:45.630Z,20.77
2023-11-26T22:29:14.926Z,15.05
2023-11-26T22:31:43.386Z,19.80
2023-11-26T22:34:13.813Z,17.17
2023-11-26T22:36:45.371Z,18.73
2023-11-26T22:39:16.242Z,12.43
2023-11-26T22:41:45.912Z,22.70
2023-11-26T22:44:14.703Z,16.77
2023-11-26T22:46:43.375Z,14.13
2023-11-26T22:49:12.368Z,16.92
2023-11-26T22:51:44.046Z,14.82
2023-11-26T22:54:12.879Z,12.90
2023-11-26T22:56:41.709Z,16.77
2023-11-26T22:59:11.752Z,19.77
2023-11-26T23:01:41.886Z,12.32
2023-11-26T23:04:10.957Z,16.52
2023-11-26T23:06:41.657Z,13.43
2023-11-26T23:09:13.324Z,14.57
2023-11-26T23:11:45.381Z,13.27
2023-11-26T23:14:16.235Z,12.05
2023-11-26T23:16:46.525Z,16.30
2023-11-26T23:19:16.546Z,13.68
2023-11-26T23:21:44.922Z,19.58
2023-11-26T23:24:13.329Z,17.17
2023-11-26T23:26:43.972Z,12.88
2023-11-26T23:29:12.960Z,14.52
2023-11-26T23:31:42.720Z,12.75
2023-11-26T23:34:11.562Z,16.00
2023-11-26T23:36:43.826Z,11.07
2023-11-26T23:39:13.447Z,11.88
2023-11-26T23:41:42.096Z,11.98
2023-11-26T23:44:13.507Z,13.55
2023-11-26T23:46:43.753Z,10.35
2023-11-26T23:49:14.643Z,18.67
2023-11-26T23:51:43.141Z,6.10
2023-11-26T23:54:14.638Z,12.65
2023-11-26T23:56:42.913Z,9.55
2023-11-26T23:59:11.444Z,12.98
